createdAt,value
2018-03-06T05:38:56.925Z,23.63
2018-03-06T05:41:28.799Z,24.80
2018-03-06T05:44:00.724Z,26.70
2018-03-06T05:46:32.615Z,24.50
2018-03-06T05:49:04.575Z,24.47
2018-03-06T05:51:36.482Z,24.87
2018-03-06T05:54:08.411Z,23.73
2018-03-06T05:56:41.182Z,24.43
2018-03-06T05:59:13.145Z,24.03
2018-03-06T06:01:45.080Z,24.23
2018-03-06T06:04:17.080Z,24.07
2018-03-06T06:06:49.035Z,25.00
2018-03-06T06:09:20.947Z,24.27
2018-03-06T06:11:52.831Z,24.77
2018-03-06T06:14:24.738Z,24.33
2018-03-06T06:16:57.547Z,23.27
2018-03-06T06:19:29.522Z,24.80
2018-03-06T06:22:01.451Z,24.80
2018-03-06T06:24:34.171Z,23.97
2018-03-06T06:27:06.006Z,24.63
2018-03-06T06:29:37.923Z,23.63
2018-03-06T06:32:09.811Z,25.03
2018-03-06T06:34:42.485Z,24.90
2018-03-06T06:37:15.139Z,25.50
2018-03-06T06:39:47.060Z,25.00
2018-03-06T06:42:18.942Z,25.77
2018-03-06T06:44:50.848Z,24.77
2018-03-06T06:47:23.503Z,26.57
2018-03-06T06:49:55.398Z,24.60
2018-03-06T06:52:27.351Z,25.73
2018-03-06T06:54:59.203Z,28.33
2018-03-06T06:57:31.921Z,25.07
2018-03-06T07:00:04.540Z,25.53
2018-03-06T07:02:36.424Z,26.10
2018-03-06T07:05:09.157Z,25.87
2018-03-06T07:07:41.046Z,25.97
2018-03-06T07:10:12.978Z,27.23
2018-03-06T07:12:44.860Z,24.60
2018-03-06T07:15:16.755Z,24.90
2018-03-06T07:17:48.643Z,25.47
2018-03-06T07:20:20.549Z,25.27
2018-03-06T07:22:52.455Z,24.20
2018-03-06T07:25:24.355Z,27.50
2018-03-06T07:27:56.329Z,27.53
2018-03-06T07:30:28.256Z,28.13
2018-03-06T07:33:00.503Z,26.10
2018-03-06T07:35:32.595Z,27.27
2018-03-06T07:38:04.746Z,27.67
2018-03-06T07:40:36.642Z,27.57
2018-03-06T07:43:08.539Z,26.13
2018-03-06T07:45:40.720Z,27.87
2018-03-06T07:48:12.595Z,25.93
2018-03-06T07:50:44.488Z,27.13
2018-03-06T07:53:16.392Z,27.13
2018-03-06T07:55:48.287Z,28.53
2018-03-06T07:58:20.171Z,26.17
2018-03-06T08:00:52.075Z,26.53
2018-03-06T08:03:23.991Z,26.73
2018-03-06T08:05:55.879Z,26.13
2018-03-06T08:08:28.532Z,27.43
2018-03-06T08:11:00.432Z,26.33
2018-03-06T08:13:32.331Z,28.30
2018-03-06T08:16:04.247Z,27.03
2018-03-06T08:18:36.151Z,26.17
2018-03-06T08:21:08.071Z,27.93
2018-03-06T08:23:39.979Z,26.50
2018-03-06T08:26:11.873Z,27.90
2018-03-06T08:28:44.520Z,27.17
2018-03-06T08:31:16.420Z,27.97
2018-03-06T08:33:49.086Z,26.90
2018-03-06T08:36:20.983Z,27.17
2018-03-06T08:38:52.876Z,29.03
2018-03-06T08:41:24.771Z,26.80
2018-03-06T08:43:57.435Z,26.97
2018-03-06T08:46:29.339Z,28.77
2018-03-06T08:49:01.221Z,27.00
2018-03-06T08:51:33.157Z,28.03
2018-03-06T08:54:05.040Z,27.33
2018-03-06T08:56:36.948Z,27.07
2018-03-06T08:59:09.632Z,26.60
2018-03-06T09:01:42.296Z,26.30
2018-03-06T09:04:14.170Z,26.83
2018-03-06T09:06:46.838Z,27.60
2018-03-06T09:09:18.735Z,26.80
2018-03-06T09:11:50.654Z,26.80
2018-03-06T09:14:22.871Z,27.03
2018-03-06T09:16:54.774Z,26.87
2018-03-06T09:19:26.658Z,26.43
2018-03-06T09:21:59.324Z,26.77
2018-03-06T09:24:31.207Z,27.30
2018-03-06T09:27:03.871Z,24.63
2018-03-06T09:29:36.652Z,26.37
2018-03-06T09:32:09.511Z,28.20
2018-03-06T09:34:41.403Z,26.00
2018-03-06T09:37:14.066Z,26.63
2018-03-06T09:39:45.956Z,28.03
2018-03-06T09:42:17.863Z,26.73
2018-03-06T09:44:49.753Z,27.13
2018-03-06T09:47:22.668Z,25.97
2018-03-06T09:49:54.547Z,27.53
2018-03-06T09:52:26.456Z,27.03
2018-03-06T09:54:58.339Z,28.63
2018-03-06T09:57:30.302Z,26.20
2018-03-06T10:00:02.139Z,27.27
2018-03-06T10:02:34.829Z,27.83
2018-03-06T10:05:07.483Z,25.53
2018-03-06T10:07:39.392Z,25.23
2018-03-06T10:10:11.298Z,25.60
2018-03-06T10:12:43.204Z,26.80
2018-03-06T10:15:15.108Z,27.30
2018-03-06T10:17:47.004Z,27.83
2018-03-06T10:20:19.662Z,27.00
2018-03-06T10:22:51.564Z,26.70
2018-03-06T10:25:23.460Z,26.57
2018-03-06T10:27:55.381Z,26.87
2018-03-06T10:30:27.272Z,27.50
2018-03-06T10:32:59.183Z,27.83
2018-03-06T10:35:31.869Z,27.33
2018-03-06T10:38:04.543Z,26.53
2018-03-06T10:40:37.454Z,28.77
2018-03-06T10:43:09.357Z,26.40
2018-03-06T10:45:41.248Z,25.40
2018-03-06T10:48:14.269Z,25.97
2018-03-06T10:50:46.160Z,26.33
2018-03-06T10:53:18.080Z,25.07
2018-03-06T10:55:49.980Z,24.97
2018-03-06T10:58:21.884Z,24.00
2018-03-06T11:00:54.548Z,24.13
2018-03-06T11:03:26.748Z,23.50
2018-03-06T11:05:58.634Z,24.53
2018-03-06T11:08:30.552Z,25.83
2018-03-06T11:11:03.228Z,24.00
2018-03-06T11:13:35.143Z,23.13
2018-03-06T11:16:07.051Z,23.80
2018-03-06T11:18:39.793Z,22.67
2018-03-06T11:21:11.687Z,22.93
2018-03-06T11:23:44.438Z,23.13
2018-03-06T11:26:17.093Z,23.50
2018-03-06T11:28:50.004Z,21.40
2018-03-06T11:31:21.897Z,19.77
2018-03-06T11:33:53.830Z,21.57
2018-03-06T11:36:27.335Z,21.20
2018-03-06T11:38:59.256Z,19.93
2018-03-06T11:41:31.263Z,19.60
2018-03-06T11:44:03.940Z,20.53
2018-03-06T11:46:35.843Z,18.17
2018-03-06T11:49:07.756Z,17.00
2018-03-06T11:51:39.708Z,18.30
2018-03-06T11:54:11.712Z,16.87
2018-03-06T11:56:44.356Z,18.83
2018-03-06T11:59:17.467Z,19.47
2018-03-06T12:01:50.222Z,18.70
2018-03-06T12:04:23.172Z,19.20
2018-03-06T12:06:55.063Z,18.63
2018-03-06T12:09:26.969Z,19.87
2018-03-06T12:11:58.912Z,20.33
2018-03-06T12:14:31.617Z,19.97
2018-03-06T12:17:03.520Z,19.30
2018-03-06T12:19:35.503Z,21.93
2018-03-06T12:22:07.399Z,21.40
2018-03-06T12:24:39.407Z,20.80
2018-03-06T12:27:11.375Z,21.80
2018-03-06T12:29:43.339Z,22.07
2018-03-06T12:32:15.224Z,22.43
2018-03-06T12:34:48.128Z,22.83
2018-03-06T12:37:20.025Z,20.87
2018-03-06T12:39:51.927Z,21.37
2018-03-06T12:42:24.596Z,20.20
2018-03-06T12:44:56.498Z,18.43
2018-03-06T12:47:28.393Z,20.23
2018-03-06T12:50:00.293Z,21.83
2018-03-06T12:52:32.947Z,20.20
2018-03-06T12:55:04.855Z,21.10
2018-03-06T12:57:36.737Z,19.47
2018-03-06T13:00:08.641Z,19.57
2018-03-06T13:02:41.298Z,17.37
2018-03-06T13:05:13.199Z,20.97
2018-03-06T13:07:45.088Z,20.37
2018-03-06T13:10:16.987Z,21.70
2018-03-06T13:12:48.878Z,21.87
2018-03-06T13:15:21.531Z,20.60
2018-03-06T13:17:53.437Z,19.37
2018-03-06T13:20:25.385Z,18.93
2018-03-06T13:22:57.259Z,20.17
2018-03-06T13:25:29.159Z,17.67
2018-03-06T13:28:01.088Z,18.10
2018-03-06T13:30:32.979Z,19.33
2018-03-06T13:33:04.864Z,15.93
2018-03-06T13:35:37.544Z,16.73
2018-03-06T13:38:10.199Z,15.93
2018-03-06T13:40:42.103Z,14.93
2018-03-06T13:43:13.992Z,15.33
2018-03-06T13:45:45.885Z,17.13
2018-03-06T13:48:17.763Z,17.20
2018-03-06T13:50:50.436Z,14.53
2018-03-06T13:53:23.091Z,14.97
2018-03-06T13:55:55.002Z,16.47
2018-03-06T13:58:26.884Z,14.37
2018-03-06T14:00:58.780Z,16.53
2018-03-06T14:03:30.668Z,12.67
2018-03-06T14:06:03.328Z,13.37
2018-03-06T14:08:35.215Z,14.43
2018-03-06T14:11:07.879Z,13.07
2018-03-06T14:13:40.528Z,13.30
2018-03-06T14:16:12.432Z,12.10
2018-03-06T14:18:45.076Z,12.70
2018-03-06T14:21:16.979Z,13.63
2018-03-06T14:23:48.880Z,13.73
2018-03-06T14:26:20.776Z,14.03
2018-03-06T14:28:53.425Z,13.47
2018-03-06T14:31:25.327Z,14.10
2018-03-06T14:33:57.226Z,13.47
2018-03-06T14:36:29.120Z,13.50
2018-03-06T14:39:01.007Z,12.43
2018-03-06T14:41:33.672Z,12.10
2018-03-06T14:44:06.381Z,14.37
2018-03-06T14:46:38.275Z,13.67
2018-03-06T14:49:10.159Z,14.20
2018-03-06T14:51:42.368Z,14.57
2018-03-06T14:54:14.271Z,11.67
2018-03-06T14:56:46.171Z,14.10
2018-03-06T14:59:18.816Z,12.00
2018-03-06T15:01:50.719Z,13.00
2018-03-06T15:04:22.609Z,11.23
2018-03-06T15:06:54.516Z,11.97
2018-03-06T15:09:27.167Z,11.27
2018-03-06T15:11:59.086Z,12.77
2018-03-06T15:14:31.028Z,13.33
2018-03-06T15:17:03.687Z,11.60
2018-03-06T15:19:36.350Z,13.23
2018-03-06T15:22:08.258Z,12.57
2018-03-06T15:24:40.127Z,11.53
2018-03-06T15:27:12.031Z,12.00
2018-03-06T15:29:44.154Z,11.50
2018-03-06T15:32:16.060Z,11.60
2018-03-06T15:34:47.962Z,11.63
2018-03-06T15:37:20.615Z,11.03
2018-03-06T15:39:53.261Z,11.63
2018-03-06T15:42:25.399Z,11.43
2018-03-06T15:44:57.567Z,11.53
2018-03-06T15:47:29.471Z,10.83
2018-03-06T15:50:01.380Z,10.10
2018-03-06T15:52:33.272Z,7.97
2018-03-06T15:55:05.991Z,8.70
2018-03-06T15:57:38.656Z,7.97
2018-03-06T16:00:10.559Z,8.60
2018-03-06T16:02:42.452Z,8.70
2018-03-06T16:05:14.336Z,10.27
2018-03-06T16:07:46.250Z,11.10
2018-03-06T16:10:18.127Z,10.47
2018-03-06T16:12:50.062Z,12.27
2018-03-06T16:15:22.683Z,12.23
2018-03-06T16:17:54.640Z,12.67
2018-03-06T16:20:26.527Z,12.23
2018-03-06T16:22:59.143Z,12.57
2018-03-06T16:25:31.032Z,11.70
2018-03-06T16:28:02.935Z,12.20
2018-03-06T16:30:35.582Z,11.40
2018-03-06T16:33:07.511Z,12.07
2018-03-06T16:35:39.423Z,11.23
2018-03-06T16:38:11.634Z,11.77
2018-03-06T16:40:43.519Z,12.97
2018-03-06T16:43:16.183Z,12.50
2018-03-06T16:45:48.069Z,12.80
2018-03-06T16:48:19.981Z,12.63
2018-03-06T16:50:51.869Z,13.57
2018-03-06T16:53:23.759Z,13.07
2018-03-06T16:55:55.635Z,13.10
2018-03-06T16:58:28.299Z,13.87
2018-03-06T17:01:00.411Z,13.77
2018-03-06T17:03:32.576Z,13.37
2018-03-06T17:06:04.480Z,14.07
2018-03-06T17:08:36.375Z,14.53
2018-03-06T17:11:09.030Z,13.97
2018-03-06T17:13:40.932Z,14.47
2018-03-06T17:16:12.840Z,15.07
2018-03-06T17:18:44.828Z,15.40
2018-03-06T17:21:16.764Z,13.80
2018-03-06T17:23:48.663Z,14.33
2018-03-06T17:26:21.314Z,14.00
2018-03-06T17:28:53.283Z,14.00
2018-03-06T17:31:25.159Z,13.83
2018-03-06T17:33:57.816Z,12.50
2018-03-06T17:36:29.708Z,13.53
2018-03-06T17:39:02.380Z,13.00
2018-03-06T17:41:35.140Z,12.30
2018-03-06T17:44:07.035Z,12.60
2018-03-06T17:46:39.515Z,10.93
2018-03-06T17:49:11.443Z,11.17
2018-03-06T17:51:44.460Z,12.27
2018-03-06T17:54:16.634Z,11.93
2018-03-06T17:56:48.517Z,10.63
2018-03-06T17:59:20.447Z,10.67
2018-03-06T18:01:53.267Z,10.57
2018-03-06T18:04:25.198Z,10.00
2018-03-06T18:06:57.113Z,10.00
2018-03-06T18:09:29.060Z,10.63
2018-03-06T18:12:01.030Z,10.30
2018-03-06T18:14:34.427Z,8.57
2018-03-06T18:17:06.542Z,8.90
2018-03-06T18:19:38.455Z,9.17
2018-03-06T18:22:10.407Z,8.53
2018-03-06T18:24:42.307Z,9.23
2018-03-06T18:27:15.075Z,8.30
2018-03-06T18:29:47.009Z,8.40
2018-03-06T18:32:18.887Z,8.13
2018-03-06T18:34:50.789Z,8.30
2018-03-06T18:37:22.749Z,9.40
2018-03-06T18:39:54.596Z,8.97
2018-03-06T18:42:26.467Z,7.87
2018-03-06T18:44:58.646Z,8.47
2018-03-06T18:47:30.524Z,7.80
2018-03-06T18:50:02.763Z,9.10
2018-03-06T18:52:34.640Z,7.90
2018-03-06T18:55:06.790Z,8.90
2018-03-06T18:57:38.668Z,8.90
2018-03-06T19:03:38.687Z,8.50
2018-03-06T19:06:22.703Z,7.97
2018-03-06T19:08:54.580Z,8.50
2018-03-06T19:11:27.252Z,9.03
2018-03-06T19:13:59.897Z,8.67
2018-03-06T19:16:31.831Z,8.87
2018-03-06T19:19:03.707Z,9.50
2018-03-06T19:21:35.611Z,9.23
2018-03-06T19:24:08.243Z,9.63
2018-03-06T19:26:40.136Z,10.67
2018-03-06T19:29:12.013Z,10.43
2018-03-06T19:31:44.672Z,12.17
2018-03-06T19:34:16.578Z,11.17
2018-03-06T19:36:48.477Z,12.77
2018-03-06T19:39:20.597Z,11.73
2018-03-06T19:41:52.480Z,13.43
2018-03-06T19:44:24.434Z,12.17
2018-03-06T19:46:56.267Z,14.10
2018-03-06T19:49:28.140Z,14.33
2018-03-06T19:52:00.033Z,14.17
2018-03-06T19:54:31.943Z,13.90
2018-03-06T19:57:04.596Z,13.97
2018-03-06T19:59:36.471Z,13.70
2018-03-06T20:02:09.132Z,13.60
2018-03-06T20:04:40.999Z,13.83
2018-03-06T20:07:12.887Z,13.80
2018-03-06T20:09:45.521Z,14.97
2018-03-06T20:12:17.409Z,17.37
2018-03-06T20:14:50.332Z,16.57
2018-03-06T20:17:22.220Z,15.07
2018-03-06T20:19:54.095Z,13.37
2018-03-06T20:22:25.982Z,13.47
2018-03-06T20:24:58.623Z,15.27
2018-03-06T20:27:30.516Z,14.60
2018-03-06T20:30:03.155Z,14.27
2018-03-06T20:32:35.049Z,13.67
2018-03-06T20:35:07.687Z,13.47
2018-03-06T20:37:39.572Z,15.03
2018-03-06T20:40:11.447Z,16.10
2018-03-06T20:42:44.098Z,16.57
2018-03-06T20:45:15.973Z,14.67
2018-03-06T20:47:47.870Z,15.67
2018-03-06T20:50:19.752Z,14.07
